createdAt,value
2018-08-19T00:00:04.433Z,99.05
2018-08-19T00:01:04.389Z,99.63
2018-08-19T00:02:04.337Z,99.05
2018-08-19T00:03:04.293Z,99.24
2018-08-19T00:04:04.230Z,99.99
2018-08-19T00:05:04.195Z,99.63
2018-08-19T00:06:04.138Z,99.44
2018-08-19T00:07:04.098Z,99.63
2018-08-19T00:08:04.057Z,99.53
2018-08-19T00:09:04.004Z,99.05
2018-08-19T00:10:03.960Z,99.44
2018-08-19T00:11:03.908Z,99.53
2018-08-19T00:12:03.860Z,99.05
2018-08-19T00:13:03.808Z,99.53
2018-08-19T00:14:03.765Z,99.34
2018-08-19T00:15:03.718Z,99.34
2018-08-19T00:16:03.688Z,99.73
2018-08-19T00:17:03.623Z,99.73
2018-08-19T00:18:03.564Z,99.24
2018-08-19T00:19:03.535Z,99.99
2018-08-19T00:20:03.481Z,99.91
2018-08-19T00:21:03.448Z,99.82
2018-08-19T00:22:03.389Z,99.99
2018-08-19T00:23:03.345Z,99.53
2018-08-19T00:24:03.297Z,99.99
2018-08-19T00:25:03.248Z,99.99
2018-08-19T00:26:03.202Z,99.99
2018-08-19T00:27:03.150Z,99.99
2018-08-19T00:28:03.105Z,99.99
2018-08-19T00:29:03.059Z,99.99
2018-08-19T00:30:03.008Z,99.99
2018-08-19T00:31:02.963Z,99.99
2018-08-19T00:32:02.923Z,99.99
2018-08-19T00:33:02.868Z,99.99
2018-08-19T00:34:02.832Z,99.99
2018-08-19T00:35:02.772Z,99.99
2018-08-19T00:36:02.708Z,99.99
2018-08-19T00:37:02.674Z,99.99
2018-08-19T00:38:02.633Z,99.99
2018-08-19T00:39:02.585Z,99.99
2018-08-19T00:40:02.549Z,99.99
2018-08-19T00:41:02.488Z,99.99
2018-08-19T00:42:02.425Z,99.99
2018-08-19T00:43:02.396Z,99.99
2018-08-19T00:44:02.392Z,99.99
2018-08-19T00:45:02.301Z,99.99
2018-08-19T00:46:02.253Z,99.99
2018-08-19T00:47:02.183Z,99.99
2018-08-19T00:48:02.156Z,99.99
2018-08-19T00:49:02.127Z,99.99
2018-08-19T00:50:02.061Z,99.99
2018-08-19T00:51:02.022Z,99.99
2018-08-19T00:52:01.963Z,99.99
2018-08-19T00:53:01.915Z,99.99
2018-08-19T00:54:01.883Z,99.99
2018-08-19T00:55:01.808Z,99.99
2018-08-19T00:56:01.760Z,99.99
2018-08-19T00:57:01.731Z,99.99
2018-08-19T00:58:01.686Z,99.99
2018-08-19T00:59:01.644Z,99.99
2018-08-19T01:00:01.584Z,99.99
2018-08-19T01:01:01.541Z,99.99
2018-08-19T01:02:01.507Z,99.99
2018-08-19T01:03:01.442Z,99.99
2018-08-19T01:04:01.399Z,99.99
2018-08-19T01:05:01.347Z,99.99
2018-08-19T01:06:01.305Z,99.99
2018-08-19T01:07:01.256Z,99.99
2018-08-19T01:08:01.213Z,99.99
2018-08-19T01:09:01.158Z,99.99
2018-08-19T01:10:01.111Z,99.99
2018-08-19T01:11:01.075Z,99.99
2018-08-19T01:12:01.015Z,99.99
2018-08-19T01:13:00.969Z,99.99
2018-08-19T01:14:00.934Z,99.99
2018-08-19T01:15:00.872Z,99.99
2018-08-19T01:16:00.806Z,99.99
2018-08-19T01:17:00.777Z,99.99
2018-08-19T01:18:00.712Z,99.99
2018-08-19T01:19:00.685Z,99.99
2018-08-19T01:20:00.617Z,99.99
2018-08-19T01:21:00.591Z,99.99
2018-08-19T01:22:00.543Z,99.99
2018-08-19T01:23:00.476Z,99.99
2018-08-19T01:24:00.450Z,99.99
2018-08-19T01:25:00.403Z,99.99
2018-08-19T01:26:00.355Z,99.99
2018-08-19T01:27:00.301Z,99.99
2018-08-19T01:28:00.255Z,99.99
2018-08-19T01:29:00.206Z,99.99
2018-08-19T01:30:00.165Z,99.99
2018-08-19T01:31:00.111Z,99.99
2018-08-19T01:32:00.067Z,99.99
2018-08-19T01:33:00.004Z,99.99
2018-08-19T01:33:59.975Z,99.99
2018-08-19T01:34:59.919Z,99.99
2018-08-19T01:35:59.876Z,99.99
2018-08-19T01:36:59.808Z,99.99
2018-08-19T01:37:59.779Z,99.99
2018-08-19T01:38:59.732Z,99.99
2018-08-19T01:39:59.682Z,99.99
2018-08-19T01:40:59.639Z,99.99
2018-08-19T01:41:59.588Z,99.99
2018-08-19T01:42:59.546Z,99.99
2018-08-19T01:43:59.497Z,99.99
2018-08-19T01:44:59.431Z,99.99
2018-08-19T01:45:59.400Z,99.99
2018-08-19T01:46:59.359Z,99.99
2018-08-19T01:47:59.308Z,99.99
2018-08-19T01:48:59.255Z,99.99
2018-08-19T01:49:59.211Z,99.99
2018-08-19T01:50:59.164Z,99.99
2018-08-19T01:51:59.114Z,99.99
2018-08-19T01:52:59.066Z,99.99
2018-08-19T01:53:59.020Z,99.99
2018-08-19T01:54:58.975Z,99.99
2018-08-19T01:55:58.907Z,99.99
2018-08-19T01:56:58.859Z,99.99
2018-08-19T01:57:58.811Z,99.99
2018-08-19T01:58:58.783Z,99.99
2018-08-19T01:59:58.718Z,99.99
2018-08-19T02:00:58.685Z,99.99
2018-08-19T02:01:58.636Z,99.99
2018-08-19T02:02:58.594Z,99.99
2018-08-19T02:03:58.545Z,99.99
2018-08-19T02:04:58.502Z,99.99
2018-08-19T02:05:58.430Z,99.99
2018-08-19T02:06:58.417Z,99.99
2018-08-19T02:07:58.361Z,99.99
2018-08-19T02:08:58.310Z,99.99
2018-08-19T02:09:58.262Z,99.99
2018-08-19T02:10:58.216Z,99.99
2018-08-19T02:11:58.178Z,99.99
2018-08-19T02:12:58.099Z,99.99
2018-08-19T02:13:58.276Z,99.99
2018-08-19T02:14:58.014Z,99.99
2018-08-19T02:15:57.976Z,99.99
2018-08-19T02:16:57.926Z,99.99
2018-08-19T02:17:57.868Z,99.99
2018-08-19T02:18:57.829Z,99.99
2018-08-19T02:19:57.788Z,99.99
2018-08-19T02:20:57.740Z,99.99
2018-08-19T02:21:57.695Z,99.99
2018-08-19T02:22:57.644Z,99.99
2018-08-19T02:23:57.600Z,99.99
2018-08-19T02:24:57.551Z,99.99
2018-08-19T02:25:57.505Z,99.99
2018-08-19T02:26:57.456Z,99.99
2018-08-19T02:27:57.435Z,99.99
2018-08-19T02:28:57.374Z,99.99
2018-08-19T02:29:57.315Z,99.99
2018-08-19T02:30:57.268Z,99.99
2018-08-19T02:31:57.218Z,99.99
2018-08-19T02:32:57.174Z,99.99
2018-08-19T02:33:57.122Z,99.99
2018-08-19T02:34:57.079Z,99.99
2018-08-19T02:35:57.027Z,99.99
2018-08-19T02:36:56.979Z,99.99
2018-08-19T02:37:56.942Z,99.99
2018-08-19T02:38:56.887Z,99.99
2018-08-19T02:39:56.837Z,99.99
2018-08-19T02:40:56.793Z,99.99
2018-08-19T02:41:56.745Z,99.99
2018-08-19T02:42:56.698Z,99.99
2018-08-19T02:43:56.646Z,99.99
2018-08-19T02:44:56.601Z,99.99
2018-08-19T02:45:56.562Z,99.99
2018-08-19T02:46:56.517Z,99.99
2018-08-19T02:47:56.458Z,99.99
2018-08-19T02:48:56.410Z,99.99
2018-08-19T02:49:56.372Z,99.99
2018-08-19T02:50:56.518Z,99.99
2018-08-19T02:51:56.267Z,99.99
2018-08-19T02:52:56.203Z,99.99
2018-08-19T02:53:56.179Z,99.99
2018-08-19T02:54:56.111Z,99.99
2018-08-19T02:55:56.082Z,99.99
2018-08-19T02:56:56.034Z,99.99
2018-08-19T02:57:55.982Z,99.99
2018-08-19T02:58:55.937Z,99.99
2018-08-19T02:59:55.893Z,99.99
2018-08-19T03:00:55.855Z,99.99
2018-08-19T03:01:55.793Z,99.99
2018-08-19T03:02:55.747Z,99.99
2018-08-19T03:03:55.708Z,99.99
2018-08-19T03:04:55.632Z,99.99
2018-08-19T03:05:55.603Z,99.99
2018-08-19T03:06:55.555Z,99.99
2018-08-19T03:07:55.511Z,99.99
2018-08-19T03:08:55.472Z,99.99
2018-08-19T03:09:55.418Z,99.99
2018-08-19T03:10:55.349Z,99.99
2018-08-19T03:11:55.319Z,99.99
2018-08-19T03:12:55.272Z,99.99
2018-08-19T03:13:55.220Z,99.99
2018-08-19T03:14:55.181Z,99.99
2018-08-19T03:15:55.134Z,99.99
2018-08-19T03:16:55.081Z,99.99
2018-08-19T03:17:55.037Z,99.99
2018-08-19T03:18:54.993Z,99.99
2018-08-19T03:19:54.942Z,99.99
2018-08-19T03:20:54.892Z,99.99
2018-08-19T03:21:54.859Z,99.99
2018-08-19T03:22:54.797Z,99.99
2018-08-19T03:23:54.762Z,99.99
2018-08-19T03:24:54.701Z,99.99
2018-08-19T03:25:54.648Z,99.99
2018-08-19T03:26:54.610Z,99.99
2018-08-19T03:27:54.564Z,99.99
2018-08-19T03:28:54.518Z,99.99
2018-08-19T03:29:54.481Z,99.99
2018-08-19T03:30:54.422Z,99.99
2018-08-19T03:31:54.377Z,99.99
2018-08-19T03:32:54.329Z,99.99
2018-08-19T03:33:54.278Z,99.99
2018-08-19T03:34:54.228Z,99.99
2018-08-19T03:35:54.183Z,99.99
2018-08-19T03:36:54.145Z,99.99
2018-08-19T03:37:54.127Z,99.99
2018-08-19T03:38:54.042Z,99.99
2018-08-19T03:39:53.991Z,99.99
2018-08-19T03:40:53.950Z,99.99
2018-08-19T03:41:53.909Z,99.99
2018-08-19T03:42:53.848Z,99.99
2018-08-19T03:43:53.805Z,99.99
2018-08-19T03:44:53.763Z,99.99
2018-08-19T03:45:53.708Z,99.99
2018-08-19T03:46:53.659Z,99.99
2018-08-19T03:47:53.616Z,99.99
2018-08-19T03:48:53.580Z,99.99
2018-08-19T03:49:53.516Z,99.99
2018-08-19T03:50:53.468Z,99.99
2018-08-19T03:51:53.432Z,99.99
2018-08-19T03:52:53.360Z,99.99
2018-08-19T03:53:53.329Z,99.99
2018-08-19T03:54:53.284Z,99.99
2018-08-19T03:55:53.232Z,99.99
2018-08-19T03:56:53.184Z,99.99
2018-08-19T03:57:53.142Z,99.99
2018-08-19T03:58:53.093Z,99.99
2018-08-19T03:59:53.045Z,99.99
2018-08-19T04:00:53.000Z,99.99
2018-08-19T04:01:52.934Z,99.99
2018-08-19T04:02:52.911Z,99.99
2018-08-19T04:03:52.851Z,99.99
2018-08-19T04:04:52.804Z,99.99
2018-08-19T04:05:52.753Z,99.99
2018-08-19T04:06:52.715Z,99.99
2018-08-19T04:07:52.653Z,99.99
2018-08-19T04:08:52.602Z,99.99
2018-08-19T04:09:52.578Z,99.99
2018-08-19T04:10:52.524Z,99.99
2018-08-19T04:11:52.475Z,99.99
2018-08-19T04:12:52.440Z,99.99
2018-08-19T04:13:52.395Z,99.99
2018-08-19T04:14:52.331Z,99.99
2018-08-19T04:15:52.289Z,99.99
2018-08-19T04:16:52.235Z,99.99
2018-08-19T04:17:52.189Z,99.99
2018-08-19T04:18:52.146Z,99.99
2018-08-19T04:19:52.099Z,99.99
2018-08-19T04:20:52.049Z,99.99
2018-08-19T04:21:52.002Z,99.99
2018-08-19T04:22:51.956Z,99.99
2018-08-19T04:23:51.904Z,99.99
2018-08-19T04:24:51.856Z,99.99
2018-08-19T04:25:51.796Z,99.99
2018-08-19T04:26:51.742Z,99.99
2018-08-19T04:27:51.717Z,99.99
2018-08-19T04:28:51.678Z,99.99
2018-08-19T04:29:51.602Z,99.99
2018-08-19T04:30:51.584Z,99.99
2018-08-19T04:31:51.542Z,99.99
2018-08-19T04:32:51.478Z,99.99
2018-08-19T04:33:51.436Z,99.99
2018-08-19T04:34:51.370Z,99.99
2018-08-19T04:35:51.342Z,99.99
2018-08-19T04:36:51.308Z,99.99
2018-08-19T04:37:51.247Z,99.99
2018-08-19T04:38:51.197Z,99.99
2018-08-19T04:39:51.150Z,99.99
2018-08-19T04:40:51.083Z,99.99
2018-08-19T04:41:51.054Z,99.99
2018-08-19T04:42:51.007Z,99.99
2018-08-19T04:43:50.960Z,99.99
2018-08-19T04:44:50.911Z,99.99
2018-08-19T04:45:50.861Z,99.99
2018-08-19T04:46:50.809Z,99.99
2018-08-19T04:47:50.764Z,99.99
2018-08-19T04:48:50.721Z,99.99
2018-08-19T04:49:50.677Z,99.99
2018-08-19T04:50:50.625Z,99.99
2018-08-19T04:51:50.580Z,99.99
2018-08-19T04:52:50.533Z,99.99
2018-08-19T04:53:50.491Z,99.99
2018-08-19T04:54:50.434Z,99.99
2018-08-19T04:55:50.390Z,99.99
2018-08-19T04:56:50.345Z,99.99
2018-08-19T04:57:50.293Z,99.99
2018-08-19T04:58:50.245Z,99.99
2018-08-19T04:59:50.181Z,99.99
2018-08-19T05:00:50.150Z,99.99
2018-08-19T05:01:50.101Z,99.99
2018-08-19T05:02:50.058Z,99.99
2018-08-19T05:03:50.008Z,99.99
2018-08-19T05:04:49.965Z,99.99
2018-08-19T05:05:49.915Z,99.99
2018-08-19T05:06:49.866Z,99.99
2018-08-19T05:07:49.846Z,99.99
2018-08-19T05:08:49.772Z,99.99
2018-08-19T05:09:49.736Z,99.99
2018-08-19T05:10:49.679Z,99.99
2018-08-19T05:11:49.615Z,99.99
2018-08-19T05:12:49.587Z,99.99
2018-08-19T05:13:49.534Z,99.99
2018-08-19T05:14:49.490Z,99.99
2018-08-19T05:15:49.439Z,99.99
2018-08-19T05:16:49.395Z,99.99
2018-08-19T05:17:49.357Z,99.99
2018-08-19T05:18:49.299Z,99.99
2018-08-19T05:19:49.259Z,99.99
2018-08-19T05:20:49.213Z,99.99
2018-08-19T05:21:49.161Z,99.99
2018-08-19T05:22:49.108Z,99.99
2018-08-19T05:23:49.045Z,99.99
2018-08-19T05:24:49.016Z,99.99
2018-08-19T05:25:48.966Z,99.99
2018-08-19T05:26:48.916Z,99.99
2018-08-19T05:27:48.869Z,99.99
2018-08-19T05:28:48.823Z,99.99
2018-08-19T05:29:48.774Z,99.99
2018-08-19T05:30:48.741Z,99.99
2018-08-19T05:31:48.682Z,99.99
2018-08-19T05:32:48.630Z,99.99
2018-08-19T05:33:48.581Z,99.99
2018-08-19T05:34:48.537Z,99.99
2018-08-19T05:35:48.498Z,99.99
2018-08-19T05:36:48.440Z,99.99
2018-08-19T05:37:48.383Z,99.99
2018-08-19T05:38:48.346Z,99.99
2018-08-19T05:39:48.298Z,99.99
2018-08-19T05:40:48.256Z,99.99
2018-08-19T05:41:48.215Z,99.99
2018-08-19T05:42:48.156Z,99.99
2018-08-19T05:43:48.107Z,99.99
2018-08-19T05:44:48.065Z,99.99
2018-08-19T05:45:48.014Z,99.99
2018-08-19T05:46:47.972Z,99.99
2018-08-19T05:47:47.929Z,99.99
2018-08-19T05:48:47.871Z,99.99
2018-08-19T05:49:47.811Z,99.99
2018-08-19T05:50:47.775Z,99.99
2018-08-19T05:51:47.731Z,99.99
2018-08-19T05:52:47.662Z,99.99
2018-08-19T05:53:47.647Z,99.99
2018-08-19T05:54:47.589Z,99.99
2018-08-19T05:55:47.540Z,99.99
2018-08-19T05:56:47.490Z,99.99
2018-08-19T05:57:47.428Z,99.99
2018-08-19T05:58:47.398Z,99.99
2018-08-19T05:59:47.347Z,99.99
2018-08-19T06:00:47.311Z,99.99
2018-08-19T06:01:47.234Z,99.99
2018-08-19T06:02:47.207Z,99.99
2018-08-19T06:03:47.157Z,99.99
2018-08-19T06:04:47.178Z,99.99
2018-08-19T06:05:47.062Z,99.99
2018-08-19T06:06:47.015Z,99.99
2018-08-19T06:07:46.950Z,99.99
2018-08-19T06:08:46.920Z,99.99
2018-08-19T06:09:46.878Z,99.99
2018-08-19T06:10:46.827Z,99.99
2018-08-19T06:11:46.780Z,99.99
2018-08-19T06:12:46.729Z,99.99
2018-08-19T06:13:46.667Z,99.99
2018-08-19T06:14:46.634Z,99.99
2018-08-19T06:15:46.624Z,99.99
2018-08-19T06:16:46.528Z,99.99
2018-08-19T06:17:46.491Z,99.99
2018-08-19T06:18:46.451Z,99.99
2018-08-19T06:19:46.396Z,99.99
2018-08-19T06:20:46.362Z,99.99
2018-08-19T06:21:46.304Z,99.99
2018-08-19T06:22:46.256Z,99.99
2018-08-19T06:23:46.199Z,99.99
2018-08-19T06:24:46.303Z,99.99
2018-08-19T06:25:46.110Z,99.99
2018-08-19T06:26:46.067Z,99.99
2018-08-19T06:27:46.021Z,99.99
2018-08-19T06:28:45.972Z,99.99
2018-08-19T06:29:45.923Z,99.99
2018-08-19T06:30:45.875Z,99.99
2018-08-19T06:31:45.829Z,99.99
2018-08-19T06:32:45.776Z,99.99
2018-08-19T06:33:45.729Z,99.99
2018-08-19T06:34:45.692Z,99.99
2018-08-19T06:35:45.632Z,99.99
2018-08-19T06:36:45.570Z,99.99
2018-08-19T06:37:45.530Z,99.99
2018-08-19T06:38:45.491Z,99.99
2018-08-19T06:39:45.475Z,99.99
2018-08-19T06:40:45.401Z,99.99
2018-08-19T06:41:45.347Z,99.99
2018-08-19T06:42:45.283Z,99.99
2018-08-19T06:43:45.266Z,99.99
2018-08-19T06:44:45.210Z,99.99
2018-08-19T06:45:45.147Z,99.99
2018-08-19T06:46:45.109Z,99.99
2018-08-19T06:47:45.068Z,99.99
2018-08-19T06:48:45.017Z,99.99
2018-08-19T06:49:44.966Z,99.99
2018-08-19T06:50:44.921Z,99.99
2018-08-19T06:51:44.885Z,99.99
2018-08-19T06:52:44.825Z,99.99
2018-08-19T06:53:44.777Z,99.99
2018-08-19T06:54:44.731Z,99.99
2018-08-19T06:55:44.684Z,99.99
2018-08-19T06:56:44.624Z,99.99
2018-08-19T06:57:44.583Z,99.99
2018-08-19T06:58:44.535Z,99.99
2018-08-19T06:59:44.491Z,99.99
2018-08-19T07:00:44.444Z,99.99
2018-08-19T07:01:44.392Z,99.99
2018-08-19T07:02:44.344Z,99.99
2018-08-19T07:03:44.384Z,99.99
2018-08-19T07:04:44.236Z,99.99
2018-08-19T07:05:44.203Z,99.99
2018-08-19T07:06:44.157Z,99.99
2018-08-19T07:07:44.105Z,99.99
2018-08-19T07:08:44.068Z,99.99
2018-08-19T07:09:44.014Z,99.99
2018-08-19T07:10:43.967Z,99.99
2018-08-19T07:11:43.914Z,99.99
2018-08-19T07:12:44.015Z,99.99
2018-08-19T07:13:43.822Z,99.99
2018-08-19T07:14:43.756Z,99.99
2018-08-19T07:15:43.727Z,99.99
2018-08-19T07:16:43.677Z,99.99
2018-08-19T07:17:43.631Z,99.99
2018-08-19T07:18:43.680Z,99.99
2018-08-19T07:19:43.563Z,99.99
2018-08-19T07:20:43.487Z,99.99
2018-08-19T07:21:43.434Z,99.99
2018-08-19T07:22:43.386Z,99.99
2018-08-19T07:23:43.357Z,99.99
2018-08-19T07:24:43.294Z,99.99
2018-08-19T07:25:43.249Z,99.99
2018-08-19T07:26:43.200Z,99.99
2018-08-19T07:27:43.152Z,99.99
2018-08-19T07:28:43.103Z,99.99
2018-08-19T07:29:43.092Z,99.99
2018-08-19T07:30:42.990Z,99.99
2018-08-19T07:31:42.957Z,99.99
2018-08-19T07:32:42.909Z,99.99
2018-08-19T07:33:42.848Z,99.99
2018-08-19T07:34:42.797Z,99.99
2018-08-19T07:35:42.770Z,99.99
2018-08-19T07:36:42.735Z,99.99
2018-08-19T07:37:42.651Z,99.99
2018-08-19T07:38:42.623Z,99.99
2018-08-19T07:39:42.580Z,99.99
2018-08-19T07:40:42.536Z,99.99
2018-08-19T07:41:42.484Z,99.99
2018-08-19T07:42:42.412Z,99.99
2018-08-19T07:43:42.382Z,99.99
2018-08-19T07:44:42.335Z,99.99
2018-08-19T07:45:42.288Z,99.99
2018-08-19T07:46:42.244Z,99.99
2018-08-19T07:47:42.191Z,99.99
2018-08-19T07:48:42.129Z,99.99
2018-08-19T07:49:42.095Z,99.99
2018-08-19T07:50:42.051Z,99.99
2018-08-19T07:51:42.058Z,99.99
2018-08-19T07:52:41.956Z,99.99
2018-08-19T07:53:41.915Z,99.99
2018-08-19T07:54:41.859Z,99.99
2018-08-19T07:55:41.807Z,99.99
2018-08-19T07:56:41.763Z,99.99
2018-08-19T07:57:41.711Z,99.99
2018-08-19T07:58:41.668Z,99.99
2018-08-19T07:59:41.625Z,99.99
2018-08-19T08:00:41.567Z,99.99
2018-08-19T08:01:41.502Z,99.99
2018-08-19T08:02:41.463Z,99.99
2018-08-19T08:03:41.428Z,99.99
2018-08-19T08:04:41.376Z,99.99
2018-08-19T08:05:41.341Z,99.99
2018-08-19T08:06:41.287Z,99.99
2018-08-19T08:07:41.250Z,99.99
2018-08-19T08:08:41.170Z,99.99
2018-08-19T08:09:41.151Z,99.99
2018-08-19T08:10:41.096Z,99.99
2018-08-19T08:11:41.048Z,99.99
2018-08-19T08:12:40.998Z,99.99
2018-08-19T08:13:40.979Z,99.99
2018-08-19T08:14:40.903Z,99.99
2018-08-19T08:15:40.855Z,99.99
2018-08-19T08:16:40.808Z,99.99
2018-08-19T08:17:40.758Z,99.99
2018-08-19T08:18:40.707Z,99.99
2018-08-19T08:19:40.659Z,99.99
2018-08-19T08:20:40.613Z,99.99
2018-08-19T08:21:40.788Z,99.99
2018-08-19T08:22:40.520Z,99.99
2018-08-19T08:23:40.473Z,99.99
2018-08-19T08:24:40.470Z,99.99
2018-08-19T08:25:40.377Z,99.99
2018-08-19T08:26:40.340Z,99.99
2018-08-19T08:27:40.291Z,99.99
2018-08-19T08:28:40.235Z,99.99
2018-08-19T08:29:40.184Z,99.99
2018-08-19T08:30:40.133Z,99.99
2018-08-19T08:31:40.086Z,99.99
2018-08-19T08:32:40.023Z,99.99
2018-08-19T08:33:39.990Z,99.99
2018-08-19T08:34:39.928Z,99.99
2018-08-19T08:35:39.895Z,99.99
2018-08-19T08:36:39.845Z,99.99
2018-08-19T08:37:39.799Z,99.99
2018-08-19T08:38:39.750Z,99.99
2018-08-19T08:39:39.706Z,99.99
2018-08-19T08:40:39.698Z,99.99
2018-08-19T08:41:39.611Z,99.99
2018-08-19T08:42:39.570Z,99.99
2018-08-19T08:43:39.511Z,99.99
2018-08-19T08:44:39.517Z,99.99
2018-08-19T08:45:39.415Z,99.99
2018-08-19T08:46:39.368Z,99.99
2018-08-19T08:47:39.393Z,99.99
2018-08-19T08:48:39.274Z,99.99
2018-08-19T08:49:39.230Z,99.99
2018-08-19T08:50:39.180Z,99.99
2018-08-19T08:51:39.133Z,99.99
2018-08-19T08:52:39.090Z,99.99
2018-08-19T08:53:39.038Z,99.99
2018-08-19T08:54:38.987Z,99.99
2018-08-19T08:55:38.936Z,99.99
2018-08-19T08:56:38.889Z,99.99
2018-08-19T08:57:38.843Z,99.99
2018-08-19T08:58:38.793Z,99.99
2018-08-19T08:59:38.746Z,99.99
2018-08-19T09:00:38.703Z,99.99
2018-08-19T09:01:38.653Z,99.99
2018-08-19T09:02:38.600Z,99.99
2018-08-19T09:03:38.537Z,99.99
2018-08-19T09:04:38.509Z,99.99
2018-08-19T09:05:38.471Z,99.99
2018-08-19T09:06:38.417Z,99.99
2018-08-19T09:07:38.378Z,99.99
2018-08-19T09:08:38.320Z,99.99
2018-08-19T09:09:38.272Z,99.99
2018-08-19T09:10:38.223Z,99.99
2018-08-19T09:11:38.173Z,99.99
2018-08-19T09:12:38.131Z,99.99
2018-08-19T09:13:38.081Z,99.99
2018-08-19T09:14:38.032Z,99.99
2018-08-19T09:15:37.986Z,99.99
2018-08-19T09:16:37.946Z,99.99
2018-08-19T09:17:37.873Z,99.99
2018-08-19T09:18:37.840Z,99.99
2018-08-19T09:19:37.789Z,99.99
2018-08-19T09:20:37.757Z,99.99
2018-08-19T09:21:37.680Z,99.99
2018-08-19T09:22:37.653Z,99.99
2018-08-19T09:23:37.590Z,99.99
2018-08-19T09:24:37.552Z,99.99
2018-08-19T09:25:37.517Z,99.99
2018-08-19T09:26:37.455Z,99.99
2018-08-19T09:27:37.927Z,99.99
2018-08-19T09:28:37.361Z,99.99
2018-08-19T09:29:37.302Z,99.99
2018-08-19T09:30:37.264Z,99.99
2018-08-19T09:31:37.228Z,99.99
2018-08-19T09:32:37.176Z,99.99
2018-08-19T09:33:37.126Z,99.99
2018-08-19T09:34:37.080Z,99.99
2018-08-19T09:35:37.040Z,99.99
2018-08-19T09:36:36.978Z,99.99
2018-08-19T09:37:36.931Z,99.99
2018-08-19T09:38:36.883Z,99.99
2018-08-19T09:39:36.882Z,99.99
2018-08-19T09:40:36.819Z,99.99
2018-08-19T09:41:36.739Z,99.99
2018-08-19T09:42:36.696Z,99.99
2018-08-19T09:43:36.644Z,99.99
2018-08-19T09:44:36.599Z,99.99
2018-08-19T09:45:36.548Z,99.99
2018-08-19T09:46:36.500Z,99.99
2018-08-19T09:47:36.488Z,99.99
2018-08-19T09:48:36.409Z,99.99
2018-08-19T09:49:36.363Z,99.99
2018-08-19T09:50:36.308Z,99.99
2018-08-19T09:51:36.247Z,99.99
2018-08-19T09:52:36.212Z,99.99
2018-08-19T09:53:36.167Z,99.99
2018-08-19T09:54:36.127Z,99.99
2018-08-19T09:55:36.068Z,99.99
2018-08-19T09:56:36.021Z,99.99
2018-08-19T09:57:36.048Z,99.99
2018-08-19T09:58:35.940Z,99.99
2018-08-19T09:59:35.878Z,99.99
2018-08-19T10:00:35.829Z,99.99
2018-08-19T10:01:35.862Z,99.99
2018-08-19T10:02:35.733Z,99.99
2018-08-19T10:03:35.684Z,99.99
2018-08-19T10:04:35.644Z,99.99
2018-08-19T10:05:35.591Z,99.99
2018-08-19T10:06:35.541Z,99.99
2018-08-19T10:07:35.501Z,99.99
2018-08-19T10:08:35.450Z,99.99
2018-08-19T10:09:35.397Z,99.99
2018-08-19T10:10:35.352Z,99.99
2018-08-19T10:11:35.301Z,99.99
2018-08-19T10:12:35.254Z,99.99
2018-08-19T10:13:35.225Z,99.99
2018-08-19T10:14:35.143Z,99.99
2018-08-19T10:15:35.111Z,99.99
2018-08-19T10:16:35.063Z,99.99
2018-08-19T10:17:35.053Z,99.99
2018-08-19T10:18:34.975Z,99.99
2018-08-19T10:19:34.919Z,99.99
2018-08-19T10:20:34.871Z,99.99
2018-08-19T10:21:34.805Z,99.99
2018-08-19T10:22:34.792Z,99.99
2018-08-19T10:23:34.730Z,99.99
2018-08-19T10:24:34.684Z,99.99
2018-08-19T10:25:34.626Z,99.99
2018-08-19T10:26:34.663Z,99.99
2018-08-19T10:27:34.541Z,99.99
2018-08-19T10:28:34.505Z,99.99
2018-08-19T10:29:34.449Z,99.99
2018-08-19T10:30:34.395Z,99.99
2018-08-19T10:31:34.346Z,99.99
2018-08-19T10:32:34.304Z,99.99
2018-08-19T10:33:34.253Z,99.99
2018-08-19T10:34:34.216Z,99.99
2018-08-19T10:35:34.161Z,99.99
2018-08-19T10:36:34.112Z,99.99
2018-08-19T10:37:34.076Z,99.99
2018-08-19T10:38:34.004Z,99.99
2018-08-19T10:39:33.967Z,99.99
2018-08-19T10:40:33.920Z,99.99
2018-08-19T10:41:33.871Z,99.99
2018-08-19T10:42:33.828Z,99.99
2018-08-19T10:43:33.776Z,99.99
2018-08-19T10:44:33.731Z,99.99
2018-08-19T10:45:33.683Z,99.99
2018-08-19T10:46:33.635Z,99.99
2018-08-19T10:47:33.593Z,99.99
2018-08-19T10:48:33.542Z,99.99
2018-08-19T10:49:33.494Z,99.99
2018-08-19T10:50:33.433Z,99.99
2018-08-19T10:51:33.403Z,99.99
2018-08-19T10:52:33.357Z,99.99
2018-08-19T10:53:33.313Z,99.99
2018-08-19T10:54:33.262Z,99.99
2018-08-19T10:55:33.218Z,99.99
2018-08-19T10:56:33.164Z,99.99
2018-08-19T10:57:33.122Z,99.99
2018-08-19T10:58:33.147Z,99.99
2018-08-19T10:59:33.026Z,99.99
2018-08-19T11:00:32.981Z,99.39
2018-08-19T11:01:32.940Z,98.62
2018-08-19T11:02:32.893Z,97.38
2018-08-19T11:03:32.845Z,96.56
2018-08-19T11:04:32.811Z,95.41
2018-08-19T11:05:32.767Z,94.54
2018-08-19T11:06:32.738Z,92.48
2018-08-19T11:07:32.656Z,91.61
2018-08-19T11:08:32.623Z,91.04
2018-08-19T11:09:32.583Z,91.13
2018-08-19T11:10:32.537Z,91.76
2018-08-19T11:11:32.489Z,91.76
2018-08-19T11:12:32.445Z,92.05
2018-08-19T11:13:32.423Z,92.53
2018-08-19T11:14:32.360Z,92.96
2018-08-19T11:15:32.310Z,93.30
2018-08-19T11:16:32.266Z,93.01
2018-08-19T11:17:32.227Z,92.91
2018-08-19T11:18:32.175Z,93.20
2018-08-19T11:19:32.135Z,92.91
2018-08-19T11:20:32.080Z,93.15
2018-08-19T11:21:32.046Z,93.73
2018-08-19T11:22:31.993Z,93.35
2018-08-19T11:23:31.950Z,92.82
2018-08-19T11:24:31.960Z,92.91
2018-08-19T11:25:31.863Z,92.82
2018-08-19T11:26:31.867Z,92.91
2018-08-19T11:27:31.801Z,92.24
2018-08-19T11:28:31.721Z,92.33
2018-08-19T11:29:31.681Z,91.96
2018-08-19T11:30:31.635Z,91.66
2018-08-19T11:31:31.640Z,92.14
2018-08-19T11:32:31.541Z,91.28
2018-08-19T11:33:31.495Z,90.90
2018-08-19T11:34:31.454Z,90.32
2018-08-19T11:35:31.404Z,90.90
2018-08-19T11:36:31.464Z,90.70
2018-08-19T11:37:31.329Z,90.32
2018-08-19T11:38:31.271Z,90.42
2018-08-19T11:39:31.226Z,91.19
2018-08-19T11:40:31.177Z,91.47
2018-08-19T11:41:31.133Z,91.09
2018-08-19T11:42:31.086Z,90.99
2018-08-19T11:43:31.041Z,91.09
2018-08-19T11:44:30.996Z,90.80
2018-08-19T11:45:30.959Z,91.47
2018-08-19T11:46:30.903Z,91.19
2018-08-19T11:47:30.857Z,91.57
2018-08-19T11:48:30.814Z,91.13
2018-08-19T11:49:30.773Z,90.66
2018-08-19T11:50:30.706Z,90.37
2018-08-19T11:51:30.689Z,89.22
2018-08-19T11:52:30.629Z,89.50
2018-08-19T11:53:30.594Z,89.69
2018-08-19T11:54:30.542Z,90.17
2018-08-19T11:55:30.493Z,90.27
2018-08-19T11:56:30.449Z,90.08
2018-08-19T11:57:30.401Z,90.56
2018-08-19T11:58:30.359Z,89.40
2018-08-19T11:59:30.310Z,89.31
2018-08-19T12:00:30.287Z,89.02
2018-08-19T12:01:30.222Z,88.93
2018-08-19T12:02:30.156Z,88.93
2018-08-19T12:03:30.114Z,88.35
2018-08-19T12:04:30.085Z,88.39
2018-08-19T12:05:30.038Z,87.68
2018-08-19T12:06:29.999Z,88.06
2018-08-19T12:07:29.949Z,87.92
2018-08-19T12:08:29.904Z,87.92
2018-08-19T12:09:29.877Z,87.96
2018-08-19T12:10:29.808Z,88.54
2018-08-19T12:11:29.742Z,88.93
2018-08-19T12:12:29.720Z,88.16
2018-08-19T12:13:29.675Z,88.35
2018-08-19T12:14:29.629Z,88.64
2018-08-19T12:15:29.587Z,88.97
2018-08-19T12:16:29.534Z,87.77
2018-08-19T12:17:29.488Z,87.68
2018-08-19T12:18:29.446Z,87.68
2018-08-19T12:19:29.408Z,88.01
2018-08-19T12:20:29.355Z,87.72
2018-08-19T12:21:29.317Z,87.72
2018-08-19T12:22:29.264Z,87.62
2018-08-19T12:23:29.214Z,87.05
2018-08-19T12:24:29.155Z,86.80
2018-08-19T12:25:29.125Z,85.65
2018-08-19T12:26:29.083Z,85.03
2018-08-19T12:27:29.071Z,85.99
2018-08-19T12:28:28.990Z,86.47
2018-08-19T12:29:28.943Z,85.22
2018-08-19T12:30:29.439Z,85.61
2018-08-19T12:31:28.851Z,84.64
2018-08-19T12:32:28.811Z,85.22
2018-08-19T12:33:28.761Z,85.71
2018-08-19T12:34:28.715Z,85.71
2018-08-19T12:35:28.651Z,84.64
2018-08-19T12:36:28.629Z,84.21
2018-08-19T12:37:28.592Z,84.21
2018-08-19T12:38:28.533Z,84.69
2018-08-19T12:39:28.502Z,84.21
2018-08-19T12:40:28.442Z,83.63
2018-08-19T12:41:28.407Z,83.44
2018-08-19T12:42:28.355Z,84.21
2018-08-19T12:43:28.313Z,84.50
2018-08-19T12:44:28.259Z,83.63
2018-08-19T12:45:28.230Z,83.15
2018-08-19T12:46:28.177Z,83.06
2018-08-19T12:47:28.176Z,83.53
2018-08-19T12:48:28.077Z,83.06
2018-08-19T12:49:28.038Z,82.86
2018-08-19T12:50:28.003Z,82.86
2018-08-19T12:51:28.034Z,82.71